createdAt,value
2019-05-02T00:00:11.961Z,0
2019-05-02T00:00:52.359Z,0
2019-05-02T00:01:34.586Z,0
2019-05-02T00:08:18.646Z,0
2019-05-02T00:08:59.064Z,0
2019-05-02T00:09:47.035Z,0
2019-05-02T00:10:24.463Z,0
2019-05-02T00:11:00.181Z,0
2019-05-02T00:11:40.524Z,0
2019-05-02T00:12:20.907Z,0
2019-05-02T00:13:01.305Z,0
2019-05-02T00:13:41.743Z,0
2019-05-02T00:14:22.055Z,0
2019-05-02T00:15:42.877Z,0
2019-05-02T00:16:23.233Z,0
2019-05-02T00:17:03.683Z,0
2019-05-02T00:25:52.478Z,0
2019-05-02T00:26:29.180Z,0
2019-05-02T00:27:09.583Z,0
2019-05-02T00:27:49.950Z,0
2019-05-02T00:28:30.354Z,0
2019-05-02T00:29:10.773Z,0
2019-05-02T00:29:53.705Z,0
2019-05-02T00:30:34.564Z,0
2019-05-02T00:31:12.838Z,0
2019-05-02T00:31:52.341Z,0
2019-05-02T00:32:32.784Z,0
2019-05-02T00:33:13.145Z,0
2019-05-02T00:33:53.544Z,0
2019-05-02T00:42:38.793Z,0
2019-05-02T00:43:19.192Z,0
2019-05-02T00:49:30.735Z,0
2019-05-02T00:50:12.722Z,0
2019-05-02T00:50:53.053Z,0
2019-05-02T00:51:33.457Z,0
2019-05-02T01:00:19.770Z,0
2019-05-02T01:00:58.941Z,0
2019-05-02T01:01:39.363Z,0
2019-05-02T01:02:19.765Z,0
2019-05-02T01:03:00.169Z,0
2019-05-02T01:03:40.485Z,0
2019-05-02T01:04:23.235Z,0
2019-05-02T01:05:03.170Z,0
2019-05-02T01:05:41.671Z,0
2019-05-02T01:06:22.065Z,0
2019-05-02T01:07:02.488Z,0
2019-05-02T01:07:42.835Z,0
2019-05-02T01:08:23.240Z,0
2019-05-02T01:17:08.365Z,0
2019-05-02T01:17:48.716Z,0
2019-05-02T01:18:29.185Z,0
2019-05-02T01:19:12.054Z,0
2019-05-02T01:19:51.371Z,0
2019-05-02T01:20:30.293Z,0
2019-05-02T01:21:10.692Z,0
2019-05-02T01:21:51.146Z,0
2019-05-02T01:22:31.594Z,0
2019-05-02T01:23:11.985Z,0
2019-05-02T01:23:52.431Z,0
2019-05-02T01:24:34.054Z,0
2019-05-02T01:25:15.650Z,0
2019-05-02T01:33:58.343Z,0
2019-05-02T01:34:38.702Z,0
2019-05-02T01:35:19.096Z,0
2019-05-02T01:36:01.627Z,0
2019-05-02T01:36:40.999Z,0
2019-05-02T01:37:21.717Z,0
2019-05-02T01:38:00.667Z,0
2019-05-02T01:38:41.031Z,0
2019-05-02T01:39:21.480Z,0
2019-05-02T01:40:01.783Z,0
2019-05-02T01:40:42.218Z,0
2019-05-02T01:41:23.892Z,0
2019-05-02T01:42:04.073Z,0
2019-05-02T01:42:44.389Z,0
2019-05-02T01:50:48.225Z,0
2019-05-02T01:51:28.664Z,0
2019-05-02T01:52:08.983Z,0
2019-05-02T01:52:49.347Z,0
2019-05-02T01:53:34.120Z,0
2019-05-02T01:54:11.380Z,0
2019-05-02T01:54:50.532Z,0
2019-05-02T01:55:30.958Z,0
2019-05-02T01:56:11.367Z,0
2019-05-02T01:56:51.674Z,0
2019-05-02T01:57:32.108Z,0
2019-05-02T01:58:14.849Z,0
2019-05-02T01:58:57.292Z,0
2019-05-02T01:59:33.791Z,0
2019-05-02T02:05:02.706Z,0
2019-05-02T02:07:31.293Z,0
2019-05-02T02:09:13.751Z,0
2019-05-02T02:10:03.795Z,0
2019-05-02T02:10:50.394Z,0
2019-05-02T02:11:40.193Z,0
2019-05-02T02:13:15.209Z,0
2019-05-02T02:13:55.628Z,0
2019-05-02T02:14:36.025Z,0
2019-05-02T02:15:16.395Z,0
2019-05-02T02:16:00.094Z,0
2019-05-02T02:17:17.653Z,0
2019-05-02T02:17:58.071Z,0
2019-05-02T02:26:06.681Z,0
2019-05-02T02:26:43.510Z,0
2019-05-02T02:27:24.530Z,0
2019-05-02T02:28:04.076Z,0
2019-05-02T02:28:44.487Z,0
2019-05-02T02:29:24.866Z,0
2019-05-02T02:30:05.311Z,0
2019-05-02T02:30:45.678Z,0
2019-05-02T02:31:26.055Z,0
2019-05-02T02:32:06.461Z,0
2019-05-02T02:32:46.872Z,0
2019-05-02T02:33:27.270Z,0
2019-05-02T02:34:07.665Z,0
2019-05-02T02:43:34.783Z,0
2019-05-02T02:44:13.515Z,0
2019-05-02T02:45:34.319Z,0
2019-05-02T02:46:14.755Z,0
2019-05-02T02:46:55.149Z,0
2019-05-02T02:47:35.547Z,0
2019-05-02T02:48:15.898Z,0
2019-05-02T02:48:56.388Z,0
2019-05-02T02:49:36.747Z,0
2019-05-02T02:50:17.124Z,0
2019-05-02T02:50:57.497Z,0
2019-05-02T02:51:37.857Z,0
2019-05-02T03:00:23.009Z,0
2019-05-02T03:01:03.346Z,0
2019-05-02T03:01:43.720Z,0
2019-05-02T03:02:24.152Z,0
2019-05-02T03:03:04.526Z,0
2019-05-02T03:03:44.942Z,0
2019-05-02T03:04:25.374Z,0
2019-05-02T03:05:05.767Z,0
2019-05-02T03:05:46.178Z,0
2019-05-02T03:06:26.614Z,0
2019-05-02T03:07:07.019Z,0
2019-05-02T03:07:47.412Z,0
2019-05-02T03:08:27.846Z,0
2019-05-02T03:18:40.430Z,0
2019-05-02T03:19:25.891Z,0
2019-05-02T03:20:12.574Z,0
2019-05-02T03:20:54.607Z,0
2019-05-02T03:21:34.981Z,0
2019-05-02T03:22:15.397Z,0
2019-05-02T03:22:55.815Z,0
2019-05-02T03:23:36.193Z,0
2019-05-02T03:24:16.617Z,0
2019-05-02T03:33:09.392Z,0
2019-05-02T03:33:54.114Z,0
2019-05-02T03:34:22.626Z,0
2019-05-02T03:35:03.040Z,0
2019-05-02T03:35:48.612Z,0
2019-05-02T03:36:29.873Z,0
2019-05-02T03:37:10.018Z,0
2019-05-02T03:37:50.753Z,0
2019-05-02T03:38:32.271Z,0
2019-05-02T03:39:13.187Z,0
2019-05-02T03:39:49.294Z,0
2019-05-02T03:40:32.071Z,0
2019-05-02T03:41:06.538Z,0
2019-05-02T03:49:52.190Z,4
2019-05-02T03:50:35.044Z,4
2019-05-02T03:51:20.871Z,4
2019-05-02T03:51:55.739Z,4
2019-05-02T03:52:36.474Z,0
2019-05-02T03:53:17.489Z,0
2019-05-02T03:54:05.521Z,4
2019-05-02T03:54:34.414Z,4
2019-05-02T03:55:14.857Z,4
2019-05-02T03:55:55.232Z,4
2019-05-02T03:56:35.684Z,4
2019-05-02T03:57:15.986Z,8
2019-05-02T03:57:56.355Z,8
2019-05-02T03:58:36.743Z,8
2019-05-02T04:06:41.618Z,12
2019-05-02T04:07:21.972Z,12
2019-05-02T04:08:02.384Z,8
2019-05-02T04:08:42.793Z,12
2019-05-02T04:09:23.187Z,12
2019-05-02T04:10:03.589Z,12
2019-05-02T04:10:43.961Z,12
2019-05-02T04:11:24.377Z,16
2019-05-02T04:12:04.775Z,16
2019-05-02T04:12:45.224Z,20
2019-05-02T04:13:29.968Z,20
2019-05-02T04:23:27.477Z,44
2019-05-02T04:24:16.103Z,48
2019-05-02T04:24:56.684Z,52
2019-05-02T04:25:35.805Z,48
2019-05-02T04:26:16.190Z,48
2019-05-02T04:26:56.568Z,48
2019-05-02T04:27:36.952Z,56
2019-05-02T05:09:47.759Z,192
2019-05-02T05:10:27.823Z,204
2019-05-02T05:11:07.968Z,208
2019-05-02T05:11:48.421Z,200
2019-05-02T05:12:32.431Z,204
2019-05-02T05:13:12.034Z,204
2019-05-02T05:13:52.331Z,208
2019-05-02T05:14:31.276Z,208
2019-05-02T05:15:13.290Z,216
2019-05-02T05:15:51.883Z,216
2019-05-02T05:16:31.277Z,212
2019-05-02T05:17:11.670Z,212
2019-05-02T05:17:52.078Z,220
2019-05-02T05:18:32.441Z,228
2019-05-02T05:19:12.862Z,232
2019-05-02T05:19:53.233Z,228
2019-05-02T05:20:33.649Z,228
2019-05-02T05:21:14.039Z,236
2019-05-02T05:24:42.098Z,252
2019-05-02T05:25:21.178Z,248
2019-05-02T05:26:02.881Z,244
2019-05-02T05:26:42.728Z,256
2019-05-02T05:31:24.225Z,300
2019-05-02T05:32:07.743Z,308
2019-05-02T05:32:43.809Z,312
2019-05-02T05:33:24.215Z,312
2019-05-02T05:34:04.605Z,312
2019-05-02T05:34:45.041Z,316
2019-05-02T05:35:27.720Z,316
2019-05-02T05:36:08.140Z,320
2019-05-02T05:36:48.115Z,324
2019-05-02T05:37:27.280Z,332
2019-05-02T05:38:07.775Z,336
2019-05-02T05:41:48.245Z,344
2019-05-02T05:42:29.911Z,352
2019-05-02T05:43:14.223Z,360
2019-05-02T05:43:53.364Z,372
2019-05-02T05:46:53.307Z,392
2019-05-02T05:47:33.723Z,392
2019-05-02T05:48:14.126Z,408
2019-05-02T05:48:55.120Z,428
2019-05-02T05:49:34.997Z,440
2019-05-02T05:50:17.421Z,448
2019-05-02T05:50:57.812Z,452
2019-05-02T05:51:37.491Z,464
2019-05-02T05:52:18.058Z,436
2019-05-02T05:52:59.142Z,416
2019-05-02T05:53:37.656Z,388
2019-05-02T05:54:17.948Z,376
2019-05-02T05:54:58.319Z,392
2019-05-02T05:55:38.979Z,412
2019-05-02T05:56:19.381Z,452
2019-05-02T05:56:59.777Z,524
2019-05-02T06:02:58.399Z,572
2019-05-02T06:03:39.355Z,584
2019-05-02T06:04:19.228Z,596
2019-05-02T06:05:02.022Z,616
2019-05-02T06:06:23.131Z,644
2019-05-02T06:07:03.623Z,668
2019-05-02T06:07:44.867Z,752
2019-05-02T06:08:24.163Z,820
2019-05-02T06:09:04.733Z,812
2019-05-02T06:09:45.901Z,744
2019-05-02T06:10:25.726Z,660
2019-05-02T06:16:01.919Z,796
2019-05-02T06:16:32.416Z,804
2019-05-02T06:17:12.798Z,820
2019-05-02T06:17:53.293Z,836
2019-05-02T06:18:36.213Z,852
2019-05-02T06:19:17.775Z,888
2019-05-02T06:19:55.412Z,972
2019-05-02T06:20:35.023Z,1076
2019-05-02T06:25:33.855Z,1256
2019-05-02T06:26:13.394Z,1180
2019-05-02T06:26:53.326Z,1136
2019-05-02T06:27:31.585Z,1120
2019-05-02T06:28:13.906Z,1056
2019-05-02T06:28:54.325Z,996
2019-05-02T06:34:58.865Z,936
2019-05-02T06:35:39.211Z,944
2019-05-02T06:36:19.630Z,1020
2019-05-02T06:37:00.038Z,1100
2019-05-02T06:39:31.860Z,1400
2019-05-02T06:40:10.171Z,1452
2019-05-02T06:40:50.671Z,1504
2019-05-02T06:41:31.807Z,1408
2019-05-02T06:42:12.805Z,1300
2019-05-02T06:42:52.469Z,1196
2019-05-02T06:46:59.105Z,1024
2019-05-02T06:49:12.654Z,1036
2019-05-02T06:49:56.013Z,1024
2019-05-02T06:50:33.233Z,980
2019-05-02T06:51:19.460Z,956
2019-05-02T06:54:37.918Z,1020
2019-05-02T06:55:18.278Z,980
2019-05-02T06:55:58.812Z,964
2019-05-02T06:56:42.998Z,980
2019-05-02T06:58:56.787Z,944
2019-05-02T06:59:37.298Z,972
2019-05-02T07:00:17.675Z,1068
2019-05-02T07:00:59.091Z,1140
2019-05-02T07:01:38.662Z,1240
2019-05-02T07:02:19.876Z,1412
2019-05-02T07:02:59.691Z,1456
2019-05-02T07:03:41.217Z,1408
2019-05-02T07:04:22.752Z,1528
2019-05-02T07:05:01.226Z,1452
2019-05-02T07:05:41.614Z,1424
2019-05-02T07:10:29.854Z,1516
2019-05-02T07:11:07.846Z,1316
2019-05-02T07:11:56.867Z,1296
2019-05-02T07:12:28.689Z,1316
2019-05-02T07:13:10.978Z,1268
2019-05-02T07:13:50.028Z,1252
2019-05-02T07:14:30.591Z,1308
2019-05-02T07:15:11.414Z,1420
2019-05-02T07:19:21.576Z,1288
2019-05-02T07:19:58.788Z,1264
2019-05-02T07:20:40.409Z,1268
2019-05-02T07:21:23.350Z,1280
2019-05-02T07:22:04.317Z,1244
2019-05-02T07:27:13.544Z,1116
2019-05-02T07:27:55.493Z,1124
2019-05-02T07:28:40.164Z,1080
2019-05-02T07:29:21.765Z,1012
2019-05-02T07:31:22.181Z,1104
2019-05-02T07:32:02.389Z,1136
2019-05-02T07:32:43.921Z,1140
2019-05-02T07:33:24.708Z,1128
2019-05-02T07:36:11.737Z,1100
2019-05-02T07:36:51.985Z,1112
2019-05-02T07:37:32.391Z,1136
2019-05-02T07:38:12.770Z,1164
2019-05-02T07:38:57.010Z,1200
2019-05-02T07:39:36.042Z,1276
2019-05-02T07:40:16.749Z,1416
2019-05-02T07:40:55.195Z,1544
2019-05-02T07:41:37.239Z,1652
2019-05-02T07:42:16.499Z,1680
2019-05-02T07:48:21.999Z,1212
2019-05-02T07:49:02.425Z,1212
2019-05-02T07:49:42.977Z,1200
2019-05-02T07:50:25.120Z,1196
2019-05-02T07:51:07.822Z,1196
2019-05-02T07:54:37.892Z,1212
2019-05-02T07:58:46.777Z,1240
2019-05-02T08:00:02.805Z,1352
2019-05-02T08:00:43.372Z,1384
2019-05-02T08:01:24.229Z,1384
2019-05-02T08:02:04.624Z,1388
2019-05-02T08:02:45.788Z,1384
2019-05-02T08:03:29.298Z,1388
2019-05-02T08:04:10.962Z,1388
2019-05-02T08:10:07.575Z,1536
2019-05-02T08:10:47.407Z,1536
2019-05-02T08:11:32.159Z,1532
2019-05-02T08:12:09.628Z,1512
2019-05-02T08:12:49.274Z,1484
2019-05-02T08:13:31.386Z,1500
2019-05-02T08:18:56.614Z,1372
2019-05-02T08:19:37.393Z,1376
2019-05-02T08:20:18.980Z,1420
2019-05-02T08:20:58.648Z,1480
2019-05-02T08:21:39.845Z,1568
2019-05-02T08:22:20.618Z,1672
2019-05-02T08:27:45.638Z,1884
2019-05-02T08:28:25.440Z,1872
2019-05-02T08:29:06.430Z,1828
2019-05-02T08:29:46.654Z,1744
2019-05-02T08:30:27.561Z,1640
2019-05-02T08:31:13.427Z,1576
2019-05-02T08:34:38.495Z,1476
2019-05-02T08:37:27.145Z,1532
2019-05-02T08:38:12.397Z,1636
2019-05-02T08:40:16.310Z,1980
2019-05-02T08:40:56.821Z,1968
2019-05-02T08:41:37.698Z,2044
2019-05-02T08:42:19.491Z,2136
2019-05-02T08:43:03.384Z,2096
2019-05-02T08:47:17.749Z,1656
2019-05-02T08:47:47.552Z,1688
2019-05-02T08:48:30.757Z,1768
2019-05-02T08:50:37.273Z,1960
2019-05-02T08:51:17.869Z,2064
2019-05-02T08:52:42.069Z,2204
2019-05-02T08:53:21.953Z,2224
2019-05-02T08:56:45.601Z,1908
2019-05-02T08:57:29.928Z,1860
2019-05-02T08:58:14.351Z,1820
2019-05-02T08:58:51.108Z,1696
2019-05-02T09:00:55.758Z,1428
2019-05-02T09:01:37.124Z,1392
2019-05-02T09:02:21.017Z,1356
2019-05-02T09:03:02.499Z,1372
2019-05-02T09:03:54.581Z,1444
2019-05-02T09:04:18.381Z,1632
2019-05-02T09:04:59.177Z,1800
2019-05-02T09:07:05.216Z,1952
2019-05-02T09:07:45.881Z,1948
2019-05-02T09:08:26.346Z,1856
2019-05-02T09:09:06.949Z,1608
2019-05-02T09:09:48.354Z,1684
2019-05-02T09:10:28.728Z,1864
2019-05-02T09:11:14.110Z,1960
2019-05-02T09:18:39.556Z,3808
2019-05-02T09:19:21.175Z,3928
2019-05-02T09:20:03.329Z,3992
2019-05-02T09:24:08.318Z,3608
2019-05-02T09:24:47.779Z,3416
2019-05-02T09:25:28.382Z,3500
2019-05-02T09:26:08.748Z,3848
2019-05-02T09:26:49.200Z,3728
2019-05-02T09:27:31.625Z,3748
2019-05-02T09:32:17.041Z,3776
2019-05-02T09:32:56.994Z,3784
2019-05-02T09:33:36.712Z,3580
2019-05-02T09:34:16.998Z,3472
2019-05-02T09:35:01.925Z,3504
2019-05-02T09:35:38.251Z,3596
2019-05-02T09:36:18.619Z,3744
2019-05-02T09:37:02.490Z,3776
2019-05-02T09:37:41.855Z,3668
2019-05-02T09:40:25.428Z,3268
2019-05-02T09:41:15.950Z,3316
2019-05-02T09:41:48.641Z,3424
2019-05-02T09:42:28.798Z,3476
2019-05-02T09:43:12.155Z,3508
2019-05-02T09:45:16.102Z,3416
2019-05-02T09:45:54.967Z,3376
2019-05-02T09:46:36.670Z,3340
2019-05-02T09:47:17.662Z,3408
2019-05-02T09:48:05.018Z,3564
2019-05-02T09:48:38.455Z,3552
2019-05-02T09:49:19.368Z,3512
2019-05-02T09:50:00.028Z,3552
2019-05-02T09:54:06.277Z,3248
2019-05-02T09:54:46.060Z,3212
2019-05-02T09:55:23.566Z,3232
2019-05-02T09:56:04.184Z,3244
2019-05-02T09:56:44.882Z,3268
2019-05-02T09:57:25.378Z,3304
2019-05-02T09:58:10.300Z,3284
2019-05-02T10:02:12.649Z,3352
2019-05-02T10:02:52.673Z,3340
2019-05-02T10:03:34.821Z,3352
2019-05-02T10:04:15.183Z,3372
2019-05-02T10:04:55.646Z,3348
2019-05-02T10:05:36.055Z,3324
2019-05-02T10:06:18.119Z,3304
2019-05-02T10:06:56.879Z,3264
2019-05-02T10:07:37.253Z,3228
2019-05-02T10:13:02.843Z,2800
2019-05-02T10:13:42.861Z,2824
2019-05-02T10:14:23.292Z,2832
2019-05-02T10:15:03.618Z,2828
2019-05-02T10:15:44.056Z,2816
2019-05-02T10:16:27.258Z,2700
2019-05-02T10:17:07.033Z,2668
2019-05-02T10:17:46.799Z,2696
2019-05-02T10:18:30.112Z,2716
2019-05-02T10:23:19.383Z,2364
2019-05-02T10:23:58.872Z,2400
2019-05-02T10:24:35.001Z,2548
2019-05-02T10:25:17.828Z,2664
2019-05-02T11:07:16.906Z,2936
2019-05-02T11:07:56.797Z,3000
2019-05-02T11:08:41.991Z,3072
2019-05-02T11:09:22.368Z,3128
2019-05-02T11:10:02.930Z,3192
2019-05-02T11:10:38.221Z,3212
2019-05-02T11:15:26.654Z,3112
2019-05-02T11:16:06.150Z,3048
2019-05-02T11:16:47.270Z,2984
2019-05-02T11:17:27.731Z,2992
2019-05-02T11:18:08.183Z,3004
2019-05-02T11:18:48.559Z,2996
2019-05-02T11:19:31.791Z,2964
2019-05-02T11:24:53.987Z,2840
2019-05-02T11:25:34.348Z,2804
2019-05-02T11:26:21.370Z,2732
2019-05-02T11:26:55.905Z,2668
2019-05-02T11:27:36.847Z,2660
2019-05-02T11:28:21.803Z,2656
2019-05-02T11:29:44.143Z,2616
2019-05-02T11:30:26.456Z,2592
2019-05-02T11:31:08.605Z,2568
2019-05-02T11:31:46.946Z,2504
2019-05-02T11:32:27.456Z,2432
2019-05-02T11:33:07.899Z,2524
2019-05-02T11:33:48.463Z,2452
2019-05-02T11:37:16.271Z,2500
2019-05-02T11:37:56.688Z,2436
2019-05-02T11:38:38.177Z,2424
2019-05-02T11:39:25.233Z,2436
2019-05-02T11:40:00.582Z,2496
2019-05-02T11:43:23.677Z,2440
2019-05-02T11:44:04.162Z,2428
2019-05-02T11:44:44.547Z,2364
2019-05-02T11:45:25.130Z,2344
2019-05-02T11:46:07.332Z,2272
2019-05-02T11:46:47.068Z,2240
2019-05-02T11:47:26.934Z,2224
2019-05-02T11:48:11.853Z,2240
2019-05-02T11:52:52.115Z,2680
2019-05-02T11:53:32.521Z,2700
2019-05-02T11:54:13.045Z,2760
2019-05-02T11:54:52.887Z,2700
2019-05-02T11:58:58.269Z,2736
2019-05-02T11:59:38.629Z,2756
2019-05-02T12:00:21.668Z,2772
2019-05-02T12:01:05.314Z,2840
2019-05-02T12:03:09.217Z,2636
2019-05-02T12:03:52.107Z,2580
2019-05-02T12:04:32.361Z,2564
2019-05-02T12:05:12.760Z,2560
2019-05-02T12:05:53.715Z,2544
2019-05-02T12:08:39.308Z,2552
2019-05-02T12:09:19.754Z,2552
2019-05-02T12:10:04.149Z,2548
2019-05-02T12:10:42.190Z,2540
2019-05-02T12:11:22.795Z,2560
2019-05-02T12:12:05.080Z,2580
2019-05-02T12:14:09.179Z,2556
2019-05-02T12:14:50.192Z,2532
2019-05-02T12:15:32.355Z,2532
2019-05-02T12:16:12.517Z,2528
2019-05-02T12:16:52.879Z,2524
2019-05-02T12:17:33.753Z,2528
2019-05-02T12:20:14.293Z,2416
2019-05-02T12:20:54.992Z,2460
2019-05-02T12:21:39.207Z,2412
2019-05-02T12:22:18.283Z,2424
2019-05-02T12:26:23.693Z,2628
2019-05-02T12:27:04.265Z,2592
2019-05-02T12:27:45.788Z,2580
2019-05-02T12:28:26.347Z,2576
2019-05-02T12:29:07.029Z,2568
2019-05-02T12:29:57.478Z,2580
2019-05-02T12:32:33.650Z,2492
2019-05-02T12:33:14.590Z,2484
2019-05-02T12:34:36.521Z,2492
2019-05-02T12:35:17.238Z,2536
2019-05-02T12:35:58.794Z,2476
2019-05-02T12:36:39.482Z,2444
2019-05-02T12:38:45.197Z,2320
2019-05-02T12:39:25.332Z,2300
2019-05-02T12:40:07.747Z,2308
2019-05-02T12:40:48.805Z,2316
2019-05-02T12:43:34.840Z,2224
2019-05-02T12:44:16.424Z,2172
2019-05-02T12:44:57.148Z,2132
2019-05-02T12:47:45.502Z,2076
2019-05-02T12:49:08.112Z,2080
2019-05-02T12:49:51.376Z,2056
2019-05-02T12:52:34.239Z,2108
2019-05-02T12:53:15.871Z,2136
2019-05-02T12:54:02.933Z,2152
2019-05-02T12:54:43.671Z,2164
2019-05-02T12:55:26.289Z,2164
2019-05-02T12:56:08.215Z,2164
2019-05-02T12:56:49.210Z,2152
2019-05-02T12:57:32.053Z,2120
2019-05-02T12:59:34.288Z,2076
2019-05-02T13:00:18.462Z,2072
2019-05-02T13:00:56.988Z,2088
2019-05-02T13:01:38.459Z,2084
2019-05-02T13:05:03.988Z,2168
2019-05-02T13:05:46.037Z,2176
2019-05-02T13:06:27.312Z,2200
2019-05-02T13:07:10.367Z,2236
2019-05-02T13:07:56.366Z,2264
2019-05-02T13:08:37.200Z,2304
2019-05-02T13:09:18.152Z,2332
2019-05-02T13:10:43.921Z,2448
2019-05-02T13:11:25.237Z,2500
2019-05-02T13:12:06.226Z,2568
2019-05-02T13:12:48.738Z,2676
2019-05-02T13:13:28.607Z,2724
2019-05-02T13:17:01.163Z,2704
2019-05-02T13:17:43.694Z,2672
2019-05-02T13:18:23.160Z,2672
2019-05-02T13:20:24.867Z,2480
2019-05-02T13:21:07.971Z,2416
2019-05-02T13:21:50.097Z,2344
2019-05-02T13:22:25.751Z,2368
2019-05-02T13:23:06.564Z,2352
2019-05-02T13:23:47.722Z,2348
2019-05-02T13:24:29.461Z,2348
2019-05-02T13:25:10.364Z,2328
2019-05-02T13:27:13.911Z,2308
2019-05-02T13:27:54.051Z,2332
2019-05-02T13:28:35.159Z,2384
2019-05-02T13:29:16.969Z,2412
2019-05-02T13:29:58.720Z,2360
2019-05-02T13:33:27.225Z,2392
2019-05-02T13:34:11.620Z,2300
2019-05-02T13:36:53.532Z,2228
2019-05-02T13:37:34.060Z,2220
2019-05-02T13:38:14.569Z,2200
2019-05-02T13:38:55.295Z,2164
2019-05-02T13:39:35.782Z,2088
2019-05-02T13:40:17.156Z,2008
2019-05-02T13:40:57.432Z,1944
2019-05-02T13:41:37.987Z,1932
2019-05-02T13:42:18.476Z,2004
2019-05-02T13:47:04.042Z,2024
2019-05-02T13:47:45.040Z,2036
2019-05-02T13:48:26.447Z,2016
2019-05-02T13:49:06.771Z,1912
2019-05-02T13:49:53.757Z,1832
2019-05-02T13:50:31.655Z,1752
2019-05-02T13:53:16.393Z,1612
2019-05-02T13:53:58.611Z,1608
2019-05-02T13:56:05.517Z,1552
2019-05-02T13:56:47.748Z,1524
2019-05-02T13:58:13.842Z,1508
2019-05-02T13:58:54.408Z,1472
2019-05-02T13:59:37.912Z,1444
2019-05-02T14:01:04.393Z,1400
2019-05-02T14:01:44.755Z,1440
2019-05-02T14:02:25.190Z,1496
2019-05-02T14:03:05.762Z,1544
2019-05-02T14:03:46.162Z,1540
2019-05-02T14:04:28.393Z,1528
2019-05-02T14:06:37.849Z,1580
2019-05-02T14:07:17.425Z,1588
2019-05-02T14:07:57.357Z,1632
2019-05-02T14:12:15.333Z,1204
2019-05-02T14:12:56.001Z,1192
2019-05-02T14:13:37.043Z,1192
2019-05-02T14:14:29.483Z,1216
2019-05-02T14:15:15.489Z,1216
2019-05-02T14:15:59.117Z,1168
2019-05-02T14:17:28.265Z,1040
2019-05-02T14:18:12.906Z,992
2019-05-02T14:18:55.519Z,944
2019-05-02T14:19:42.051Z,904
2019-05-02T14:20:30.279Z,876
2019-05-02T14:24:11.781Z,772
2019-05-02T14:24:53.186Z,736
2019-05-02T14:25:42.568Z,696
2019-05-02T14:26:29.793Z,668
2019-05-02T14:27:07.071Z,648
2019-05-02T14:27:55.569Z,644
2019-05-02T14:28:36.211Z,648
2019-05-02T14:29:16.302Z,664
2019-05-02T14:29:57.362Z,688
2019-05-02T14:30:44.116Z,716
2019-05-02T14:32:19.657Z,748
2019-05-02T14:32:52.303Z,768
2019-05-02T14:34:16.065Z,840
2019-05-02T14:35:02.314Z,872
2019-05-02T14:35:47.780Z,892
2019-05-02T14:36:33.563Z,904
2019-05-02T14:37:16.003Z,908
2019-05-02T14:38:02.440Z,920
2019-05-02T14:39:25.076Z,960
2019-05-02T14:40:06.017Z,976
2019-05-02T14:40:52.572Z,992
2019-05-02T14:45:01.128Z,1060
2019-05-02T14:45:27.123Z,1068
2019-05-02T14:45:59.730Z,1096
2019-05-02T14:46:42.532Z,1132
2019-05-02T14:50:47.491Z,1232
2019-05-02T14:51:28.223Z,1216
2019-05-02T14:52:09.339Z,1216
2019-05-02T14:52:51.339Z,1220
2019-05-02T14:53:31.954Z,1228
2019-05-02T14:54:12.029Z,1228
2019-05-02T14:54:52.230Z,1224
2019-05-02T15:00:59.880Z,1144
2019-05-02T15:01:43.267Z,1108
2019-05-02T15:04:44.209Z,952
2019-05-02T15:05:24.086Z,908
2019-05-02T15:06:03.947Z,864
2019-05-02T15:06:47.516Z,828
2019-05-02T15:07:27.076Z,808
2019-05-02T15:08:52.650Z,792
2019-05-02T15:09:35.964Z,804
2019-05-02T15:10:13.758Z,824
2019-05-02T15:10:56.540Z,836
2019-05-02T15:11:42.736Z,848
2019-05-02T15:13:06.039Z,864
2019-05-02T15:13:47.088Z,868
2019-05-02T15:14:27.790Z,864
2019-05-02T15:18:37.323Z,904
2019-05-02T15:22:12.306Z,920
2019-05-02T15:24:12.570Z,736
2019-05-02T15:24:56.443Z,704
2019-05-02T15:25:38.187Z,688
2019-05-02T15:27:11.648Z,684
2019-05-02T15:27:49.873Z,648
2019-05-02T15:29:19.267Z,584
2019-05-02T15:30:01.764Z,504
2019-05-02T15:37:32.118Z,108
2019-05-02T15:38:18.792Z,108
2019-05-02T15:38:53.626Z,100
2019-05-02T15:40:54.132Z,108
2019-05-02T15:41:34.463Z,104
2019-05-02T15:42:17.734Z,100
2019-05-02T15:42:56.609Z,100
2019-05-02T15:43:39.157Z,96
2019-05-02T15:51:05.889Z,80
2019-05-02T15:51:43.192Z,92
2019-05-02T15:52:24.026Z,104
2019-05-02T15:53:07.762Z,108
2019-05-02T15:53:48.243Z,104
2019-05-02T15:54:23.877Z,92
2019-05-02T15:55:04.317Z,88
2019-05-02T15:55:44.652Z,96
2019-05-02T15:56:25.131Z,112
2019-05-02T15:57:05.841Z,124
2019-05-02T15:57:47.099Z,148
2019-05-02T16:05:49.229Z,340
2019-05-02T16:06:31.408Z,356
2019-05-02T16:07:12.115Z,372
2019-05-02T16:07:52.328Z,380
2019-05-02T16:08:33.966Z,380
2019-05-02T16:15:22.140Z,228
2019-05-02T16:16:02.088Z,208
2019-05-02T16:16:41.701Z,192
2019-05-02T16:17:22.089Z,180
2019-05-02T16:18:05.135Z,172
2019-05-02T16:18:43.869Z,140
2019-05-02T16:24:11.807Z,168
2019-05-02T16:24:53.247Z,160
2019-05-02T16:25:34.060Z,156
2019-05-02T16:26:13.241Z,152
2019-05-02T16:26:56.578Z,188
2019-05-02T16:27:34.369Z,208
2019-05-02T17:10:08.348Z,320
2019-05-02T17:10:53.374Z,328
2019-05-02T17:11:32.271Z,272
2019-05-02T17:12:11.735Z,208
2019-05-02T17:12:52.775Z,148
2019-05-02T17:15:14.078Z,88
2019-05-02T17:16:12.790Z,92
2019-05-02T17:17:01.491Z,132
2019-05-02T17:21:26.756Z,152
2019-05-02T17:22:05.143Z,124
2019-05-02T17:22:49.966Z,164
2019-05-02T17:23:25.922Z,200
2019-05-02T17:24:06.276Z,212
2019-05-02T17:24:46.891Z,200
2019-05-02T17:25:27.205Z,180
2019-05-02T17:26:07.716Z,232
2019-05-02T17:33:33.521Z,208
2019-05-02T17:34:14.896Z,208
2019-05-02T17:34:54.714Z,204
2019-05-02T17:35:35.967Z,208
2019-05-02T17:36:16.490Z,196
2019-05-02T17:36:59.041Z,172
2019-05-02T17:37:40.490Z,152
2019-05-02T17:43:43.658Z,180
2019-05-02T17:44:24.620Z,184
2019-05-02T17:45:04.446Z,176
2019-05-02T17:45:44.804Z,192
2019-05-02T17:46:25.905Z,220
2019-05-02T17:47:06.065Z,224
2019-05-02T17:47:47.271Z,228
2019-05-02T17:48:26.828Z,232
2019-05-02T17:49:07.174Z,228
2019-05-02T17:49:47.692Z,236
2019-05-02T17:53:53.006Z,204
2019-05-02T17:54:33.367Z,184
2019-05-02T17:55:13.747Z,184
2019-05-02T17:55:54.411Z,184
2019-05-02T17:56:34.821Z,188
2019-05-02T17:57:15.197Z,188
2019-05-02T17:57:55.628Z,184
2019-05-02T17:58:36.024Z,168
2019-05-02T17:59:17.038Z,172
2019-05-02T17:59:56.872Z,160
2019-05-02T18:00:37.286Z,136
2019-05-02T18:01:17.677Z,112
2019-05-02T18:07:24.921Z,152
2019-05-02T18:12:18.387Z,132
2019-05-02T18:12:59.938Z,128
2019-05-02T18:13:39.542Z,128
2019-05-02T18:14:21.990Z,124
2019-05-02T18:15:02.934Z,124
2019-05-02T18:15:41.652Z,124
2019-05-02T18:16:21.764Z,124
2019-05-02T18:17:02.002Z,120
2019-05-02T18:17:42.717Z,116
2019-05-02T18:18:22.718Z,112
2019-05-02T18:19:03.036Z,108
2019-05-02T18:19:43.389Z,104
2019-05-02T18:28:28.565Z,64
2019-05-02T18:29:08.959Z,60
2019-05-02T18:29:49.349Z,56
2019-05-02T18:30:29.791Z,56
2019-05-02T18:31:12.048Z,56
2019-05-02T18:31:52.111Z,56
2019-05-02T18:32:30.946Z,56
2019-05-02T18:33:12.048Z,52
2019-05-02T18:33:52.210Z,48
2019-05-02T18:34:32.290Z,48
2019-05-02T18:35:12.673Z,48
2019-05-02T18:35:53.102Z,44
2019-05-02T18:36:33.502Z,40
2019-05-02T18:44:38.227Z,28
2019-05-02T18:45:18.651Z,24
2019-05-02T18:46:03.562Z,20
2019-05-02T18:46:41.420Z,20
2019-05-02T18:47:21.583Z,20
2019-05-02T18:48:06.410Z,16
2019-05-02T18:48:41.921Z,16
2019-05-02T18:49:21.833Z,16
2019-05-02T18:50:06.031Z,16
2019-05-02T18:50:46.292Z,12
2019-05-02T18:51:22.337Z,12
2019-05-02T18:52:02.758Z,12
2019-05-02T18:52:47.871Z,12
2019-05-02T18:59:28.747Z,0
2019-05-02T19:00:09.138Z,4
2019-05-02T19:00:51.786Z,0
2019-05-02T19:01:31.918Z,0
2019-05-02T19:02:10.278Z,4
2019-05-02T19:02:50.682Z,4
2019-05-02T19:03:31.079Z,4
2019-05-02T19:07:29.840Z,4
2019-05-02T19:09:21.846Z,0
2019-05-02T19:09:58.811Z,0
2019-05-02T19:10:42.354Z,0
2019-05-02T19:11:18.528Z,0
2019-05-02T19:12:05.229Z,0
2019-05-02T19:12:39.335Z,0
2019-05-02T19:13:19.833Z,0
2019-05-02T19:14:00.206Z,0
2019-05-02T19:14:41.956Z,0
2019-05-02T19:15:21.891Z,0
2019-05-02T19:16:02.259Z,0
2019-05-02T19:23:27.305Z,0
2019-05-02T19:24:07.481Z,0